Time;durP1;ratioP1;P1;durP2;ratioP2;P2;SDS_P1;SDS_P2;PMS_P1;PMS_P2;Temp;Humidity;BMP_temperature;BMP_pressure;BME280_temperature;BME280_humidity;BME280_pressure;Samples;Min_cycle;Max_cycle;Signal;HPM_P1;HPM_P2
2022/01/24 00:02:09;;;;;;;11.45;8.85;;;5.00;82.00;;;4.00;68.91;96360.59;4686962;30;20248;-83
2022/01/24 00:04:38;;;;;;;10.02;8.00;;;5.00;82.10;;;3.99;68.79;96353.75;4686886;30;20245;-83
2022/01/24 00:07:05;;;;;;;8.90;7.78;;;5.00;82.00;;;3.99;68.91;96360.69;4687559;30;20575;-83
2022/01/24 00:09:33;;;;;;;10.20;8.40;;;5.00;82.00;;;3.99;69.05;96355.50;4687572;30;20237;-83
2022/01/24 00:12:15;;;;;;;10.95;7.80;;;5.00;82.00;;;3.89;68.96;96338.97;4701102;30;20276;-83
2022/01/24 00:17:31;;;;;;;10.35;8.50;;;5.00;82.00;;;3.92;69.10;96347.34;4687039;30;20217;-83
2022/01/24 00:28:19;;;;;;;9.93;7.82;;;4.90;82.00;;;3.91;69.18;96350.06;4700144;30;20209;-83
2022/01/24 00:30:47;;;;;;;10.10;7.45;;;4.90;82.00;;;3.92;68.94;96344.75;4687344;30;20252;-83
2022/01/24 00:33:15;;;;;;;11.23;7.95;;;4.90;82.00;;;3.94;69.08;96353.25;4701670;30;20223;-83
2022/01/24 00:35:42;;;;;;;11.07;7.88;;;4.90;82.00;;;3.96;69.04;96345.34;4701220;30;20701;-83
2022/01/24 00:38:09;;;;;;;10.95;8.25;;;4.90;82.00;;;3.97;68.95;96354.81;4686627;30;20295;-83
2022/01/24 00:40:40;;;;;;;11.18;8.40;;;4.90;82.00;;;3.96;69.25;96350.53;4672393;30;20385;-84
2022/01/24 00:43:26;;;;;;;11.20;8.70;;;5.00;82.10;;;3.98;68.98;96353.88;4687707;30;20229;-82
2022/01/24 00:46:01;;;;;;;11.27;8.85;;;5.00;82.10;;;3.95;69.02;96352.28;4688113;30;20216;-83
2022/01/24 00:48:40;;;;;;;11.02;8.50;;;5.00;82.00;;;3.96;69.17;96353.97;4699645;30;20213;-83
2022/01/24 00:54:42;;;;;;;11.07;8.40;;;4.90;82.00;;;3.98;69.00;96356.47;4688649;30;20264;-83
2022/01/24 00:56:51;;;;;;;11.63;8.73;;;4.90;82.00;;;3.96;68.90;96351.38;4700910;30;20308;-83
2022/01/24 00:59:19;;;;;;;12.07;8.65;;;5.00;82.00;;;3.94;68.86;96352.41;4685953;30;20241;-83
2022/01/24 01:01:46;;;;;;;12.27;9.05;;;4.90;82.70;;;3.99;69.04;96365.88;4686934;30;20212;-83
2022/01/24 01:04:15;;;;;;;11.45;8.32;;;5.00;82.00;;;3.98;68.67;96359.88;4700683;30;20806;-83
2022/01/24 01:06:44;;;;;;;12.55;8.90;;;5.00;82.00;;;3.99;69.24;96348.56;4686328;30;20648;-83
2022/01/24 01:20:19;;;;;;;10.80;8.70;;;5.00;82.00;;;3.97;69.04;96332.25;4700451;30;20253;-83
2022/01/24 01:22:46;;;;;;;11.65;8.75;;;4.90;82.00;;;3.97;69.14;96331.44;4672638;30;20277;-84
2022/01/24 01:25:13;;;;;;;13.02;9.10;;;5.00;82.10;;;3.93;68.87;96327.41;4686025;30;20862;-82
2022/01/24 01:27:44;;;;;;;12.73;9.50;;;5.00;82.10;;;3.97;69.01;96336.63;4685081;30;20228;-83
2022/01/24 01:30:18;;;;;;;13.15;9.07;;;5.00;82.00;;;4.00;69.00;96337.22;4672846;30;20323;-83
2022/01/24 01:35:40;;;;;;;11.75;8.90;;;5.00;82.00;;;4.00;69.06;96332.03;4700188;30;20435;-82
2022/01/24 01:57:21;;;;;;;11.57;7.88;;;5.00;82.00;;;3.95;68.73;96296.97;4683994;30;20753;-82
2022/01/24 01:59:49;;;;;;;11.77;8.73;;;5.00;82.10;;;4.01;68.90;96307.69;4685299;30;20654;-84
2022/01/24 02:02:16;;;;;;;11.70;9.02;;;5.00;82.10;;;4.01;68.79;96302.50;4700006;30;20213;-83
2022/01/24 02:04:44;;;;;;;12.82;9.50;;;5.00;82.00;;;4.02;69.03;96303.34;4699522;30;20297;-83
2022/01/24 02:07:16;;;;;;;11.50;8.65;;;5.00;82.00;;;3.98;68.64;96296.75;4683692;30;20674;-82
2022/01/24 02:09:45;;;;;;;11.95;8.10;;;5.00;82.00;;;4.03;69.04;96305.00;4685592;30;20264;-83
2022/01/24 02:12:14;;;;;;;11.07;8.35;;;5.00;82.00;;;4.04;68.99;96296.28;4684823;30;20221;-84
2022/01/24 02:14:49;;;;;;;10.60;8.18;;;5.00;82.10;;;4.06;68.89;96293.56;4685035;30;20299;-83
2022/01/24 02:17:23;;;;;;;13.80;9.18;;;5.00;82.00;;;4.03;68.70;96280.81;4685644;30;20227;-83
2022/01/24 02:23:13;;;;;;;13.05;8.20;;;5.00;82.00;;;4.06;68.65;96291.78;4682870;30;20213;-83
2022/01/24 02:25:37;;;;;;;11.02;8.20;;;5.00;82.00;;;4.06;68.84;96291.78;4699143;30;20252;-83
2022/01/24 02:28:05;;;;;;;12.02;8.68;;;5.00;82.00;;;4.03;68.94;96291.19;4670932;30;20216;-83
2022/01/24 02:31:03;;;;;;;12.93;9.27;;;5.00;82.00;;;4.06;68.76;96288.38;4684851;30;20260;-83
2022/01/24 02:33:31;;;;;;;12.52;9.05;;;5.00;81.90;;;4.01;69.07;96275.75;4699459;30;20267;-83
2022/01/24 02:35:58;;;;;;;11.73;9.10;;;5.00;82.00;;;4.02;68.65;96282.59;4699319;30;20217;-82
2022/01/24 02:49:34;;;;;;;14.68;9.77;;;5.00;82.00;;;3.97;69.00;96274.31;4698998;30;20243;-83
2022/01/24 02:52:14;;;;;;;15.18;9.80;;;5.00;82.00;;;3.97;69.07;96276.94;4684209;30;20319;-83
2022/01/24 02:54:42;;;;;;;14.57;9.73;;;5.00;82.00;;;3.94;68.75;96277.16;4696877;30;20240;-83
2022/01/24 02:57:10;;;;;;;12.43;9.52;;;5.00;82.00;;;3.98;68.99;96276.00;4670087;30;20217;-83
2022/01/24 02:59:37;;;;;;;14.52;10.23;;;5.00;82.00;;;3.93;69.24;96278.09;4670126;30;20291;-83
2022/01/24 03:02:05;;;;;;;12.40;9.45;;;4.90;82.00;;;3.97;69.26;96277.75;4669565;30;20227;-83
2022/01/24 03:04:37;;;;;;;13.10;9.35;;;4.90;82.00;;;4.00;69.00;96281.88;4684754;30;20319;-83
2022/01/24 03:07:05;;;;;;;13.13;9.50;;;4.90;82.00;;;3.99;68.87;96275.00;4698304;30;20227;-83
2022/01/24 03:09:33;;;;;;;13.73;10.13;;;5.00;82.10;;;4.01;68.87;96280.94;4684165;30;20672;-84
2022/01/24 03:12:05;;;;;;;15.45;10.57;;;5.00;82.10;;;3.97;69.62;96279.53;4669993;30;20223;-82
2022/01/24 03:14:35;;;;;;;15.00;10.43;;;4.90;82.10;;;3.99;69.15;96280.22;4685039;30;20237;-83
2022/01/24 03:17:06;;;;;;;13.65;9.27;;;4.90;82.00;;;4.01;69.04;96289.53;4683154;30;20217;-82
2022/01/24 03:19:33;;;;;;;13.45;9.02;;;5.00;82.10;;;3.99;69.05;96283.66;4683301;30;20245;-84
2022/01/24 03:22:01;;;;;;;14.35;10.27;;;4.90;82.10;;;4.04;68.87;96290.25;4684351;30;20245;-83
2022/01/24 03:24:28;;;;;;;12.23;9.43;;;5.00;82.90;;;4.05;69.11;96290.13;4698490;30;20237;-83
2022/01/24 03:26:55;;;;;;;12.98;8.95;;;5.00;82.10;;;3.96;69.19;96270.88;4698260;30;20299;-83
2022/01/24 03:29:22;;;;;;;13.23;9.25;;;5.00;82.90;;;4.06;68.82;96289.19;4683438;30;20237;-83
2022/01/24 03:31:50;;;;;;;14.63;9.75;;;5.00;82.10;;;3.97;68.95;96288.13;4684743;30;20432;-82
2022/01/24 03:34:17;;;;;;;13.38;9.85;;;5.00;82.10;;;4.00;68.83;96289.66;4683885;30;20662;-83
2022/01/24 03:36:44;;;;;;;14.20;9.82;;;5.00;82.10;;;3.98;68.99;96288.97;4684462;30;20749;-83
2022/01/24 03:39:12;;;;;;;12.38;9.25;;;5.00;82.00;;;4.04;68.89;96298.03;4683408;30;20240;-83
2022/01/24 03:41:40;;;;;;;11.25;8.32;;;5.00;82.00;;;4.00;69.15;96300.88;4681746;30;20332;-83
2022/01/24 03:44:11;;;;;;;13.80;9.38;;;5.00;82.00;;;3.93;69.00;96294.50;4672901;30;20240;-83
2022/01/24 03:52:18;;;;;;;13.02;8.88;;;5.00;82.10;;;3.91;69.27;96311.13;4686693;30;20247;-83
2022/01/24 03:54:49;;;;;;;13.48;9.32;;;4.90;82.00;;;3.90;68.63;96307.69;4684051;30;20378;-84
2022/01/24 03:57:20;;;;;;;14.35;10.18;;;4.90;82.00;;;3.89;69.26;96316.41;4669800;30;20252;-83
2022/01/24 03:59:47;;;;;;;14.27;10.13;;;4.90;82.00;;;3.89;69.16;96316.41;4684184;30;20344;-83
2022/01/24 04:02:17;;;;;;;12.65;8.65;;;4.90;82.00;;;3.91;69.22;96322.34;4668384;30;20232;-82
2022/01/24 04:04:45;;;;;;;12.30;8.35;;;4.90;82.00;;;3.89;69.11;96316.41;4677585;30;20260;-82
2022/01/24 04:07:12;;;;;;;13.20;9.35;;;4.90;82.00;;;3.89;69.20;96308.63;4698095;30;20625;-82
2022/01/24 04:09:41;;;;;;;13.52;9.05;;;4.90;82.00;;;3.91;69.07;96311.94;4669362;30;20327;-83
2022/01/24 04:12:13;;;;;;;13.07;8.82;;;4.90;82.00;;;3.88;69.12;96306.97;4698448;30;20279;-83
2022/01/24 04:22:18;;;;;;;10.80;8.20;;;4.90;82.00;;;3.84;69.29;96297.78;4687209;30;20221;-83
2022/01/24 04:24:48;;;;;;;11.52;8.57;;;4.90;82.00;;;3.82;69.05;96305.69;4685792;30;20586;-84
2022/01/24 04:27:15;;;;;;;11.07;8.05;;;4.90;82.00;;;3.84;69.25;96306.41;4686935;30;20592;-83
2022/01/24 04:29:43;;;;;;;14.30;9.07;;;4.80;82.00;;;3.75;68.89;96298.47;4701032;30;20233;-82
2022/01/24 04:32:10;;;;;;;11.70;8.27;;;4.90;82.00;;;3.82;69.48;96308.28;4687245;30;20276;-83
2022/01/24 04:34:38;;;;;;;12.45;8.25;;;4.90;82.10;;;3.83;68.84;96311.69;4686000;30;20248;-83
2022/01/24 04:37:05;;;;;;;13.15;8.70;;;4.80;82.00;;;3.80;69.19;96310.16;4701347;30;20665;-83
2022/01/24 04:39:32;;;;;;;13.35;9.48;;;4.90;82.00;;;3.79;69.09;96313.69;4672591;30;20272;-83
2022/01/24 04:42:07;;;;;;;12.48;8.38;;;4.80;81.90;;;3.76;68.93;96295.78;4687018;30;20312;-83
2022/01/24 04:47:32;;;;;;;12.68;8.68;;;4.80;81.90;;;3.72;68.85;96301.28;4689086;30;20275;-83
2022/01/24 04:52:57;;;;;;;12.63;9.10;;;4.80;81.90;;;3.73;69.26;96308.97;4689179;30;20255;-82
2022/01/24 04:55:24;;;;;;;12.18;8.88;;;4.80;81.90;;;3.74;69.08;96307.22;4687449;30;20264;-83
2022/01/24 04:57:52;;;;;;;14.07;9.52;;;4.70;81.80;;;3.72;68.94;96307.31;4700710;30;20213;-83
2022/01/24 05:00:19;;;;;;;13.75;9.13;;;4.80;81.90;;;3.74;68.80;96307.22;4686289;30;20341;-82
2022/01/24 05:02:46;;;;;;;13.02;8.45;;;4.80;82.00;;;3.69;68.94;96294.56;4700728;30;20248;-83
2022/01/24 05:05:18;;;;;;;13.75;8.82;;;4.70;81.90;;;3.65;68.95;96293.97;4685832;30;20233;-84
2022/01/24 05:07:45;;;;;;;12.98;8.80;;;4.70;81.80;;;3.74;68.95;96315.00;4686458;30;20621;-83
2022/01/24 05:10:26;;;;;;;11.10;8.02;;;4.80;81.80;;;3.70;68.71;96298.81;4672067;30;20239;-83
2022/01/24 05:21:31;;;;;;;13.23;8.25;;;4.70;81.60;;;3.64;68.91;96300.09;4700199;30;20257;-83
2022/01/24 05:23:58;;;;;;;12.75;9.10;;;4.70;81.60;;;3.59;68.88;96299.63;4700536;30;20294;-83
2022/01/24 05:26:25;;;;;;;11.30;8.18;;;4.70;81.60;;;3.56;68.55;96297.25;4686139;30;20216;-84
2022/01/24 05:28:53;;;;;;;12.45;8.18;;;4.70;81.60;;;3.57;68.60;96292.91;4671522;30;20240;-84
2022/01/24 05:31:21;;;;;;;11.63;8.25;;;4.60;81.60;;;3.58;68.60;96303.16;4700217;30;20224;-85
2022/01/24 05:33:49;;;;;;;14.30;8.88;;;4.70;81.70;;;3.56;69.06;96293.84;4700117;30;20241;-84
2022/01/24 05:36:16;;;;;;;12.35;8.02;;;4.60;81.70;;;3.58;69.05;96297.97;4686485;30;20267;-84
2022/01/24 05:38:43;;;;;;;11.25;7.55;;;4.60;81.60;;;3.57;68.74;96301.50;4685931;30;20233;-84
2022/01/24 05:41:10;;;;;;;12.68;8.45;;;4.60;81.60;;;3.56;68.77;96306.81;4700441;30;20275;-85
2022/01/24 05:43:38;;;;;;;12.40;8.32;;;4.60;81.60;;;3.54;68.80;96301.75;4671726;30;20221;-84
2022/01/24 05:46:05;;;;;;;13.55;8.18;;;4.60;81.70;;;3.51;68.76;96309.72;4672076;30;20220;-85
2022/01/24 05:48:32;;;;;;;14.15;8.98;;;4.60;81.70;;;3.48;68.58;96315.16;4699189;30;20217;-84
2022/01/24 05:50:59;;;;;;;11.48;8.18;;;4.60;81.70;;;3.46;68.83;96306.66;4685577;30;20300;-84
2022/01/24 05:53:26;;;;;;;13.18;8.43;;;4.60;81.60;;;3.42;68.78;96306.06;4700017;30;20224;-85
2022/01/24 05:55:54;;;;;;;11.38;8.32;;;4.60;81.60;;;3.44;68.94;96301.59;4671621;30;20241;-83
2022/01/24 05:58:22;;;;;;;12.63;8.25;;;4.50;81.60;;;3.44;68.71;96306.78;4684895;30;20221;-83
2022/01/24 06:00:49;;;;;;;14.15;8.80;;;4.50;81.60;;;3.42;68.97;96305.22;4685665;30;20320;-84
2022/01/24 06:03:17;;;;;;;12.98;8.43;;;4.50;81.70;;;3.45;68.55;96305.00;4686063;30;20221;-83
2022/01/24 06:05:45;;;;;;;13.75;9.73;;;4.50;81.70;;;3.44;68.97;96303.34;4685803;30;20236;-84
2022/01/24 06:08:12;;;;;;;14.80;8.45;;;4.50;81.80;;;3.40;69.11;96294.16;4698935;30;20232;-82
2022/01/24 06:10:40;;;;;;;14.80;9.30;;;4.50;81.90;;;3.40;68.89;96294.97;4685162;30;20289;-84
2022/01/24 06:13:08;;;;;;;15.52;9.80;;;4.50;81.80;;;3.43;69.10;96305.13;4684906;30;20216;-84
2022/01/24 06:15:35;;;;;;;15.05;9.02;;;4.50;81.80;;;3.42;69.35;96305.22;4699552;30;20240;-84
2022/01/24 06:18:02;;;;;;;15.15;10.07;;;4.50;81.90;;;3.35;69.05;96297.06;4671334;30;20271;-84
2022/01/24 06:20:29;;;;;;;15.13;9.02;;;4.50;81.90;;;3.42;69.27;96300.03;4684859;30;20328;-84
2022/01/24 06:22:56;;;;;;;14.70;9.20;;;4.50;82.00;;;3.41;69.30;96303.59;4698525;30;20684;-84
2022/01/24 06:25:25;;;;;;;12.25;7.95;;;4.50;82.00;;;3.44;69.46;96311.97;4670025;30;20588;-83
2022/01/24 06:27:52;;;;;;;12.18;7.80;;;4.50;82.10;;;3.48;69.25;96315.16;4685029;30;20227;-84
2022/01/24 06:30:20;;;;;;;12.63;8.32;;;4.50;82.00;;;3.46;69.28;96322.22;4683954;30;20237;-83
2022/01/24 06:32:47;;;;;;;13.43;8.27;;;4.50;82.10;;;3.46;69.19;96314.44;4685628;30;20236;-84
2022/01/24 06:35:15;;;;;;;16.80;9.55;;;4.50;82.10;;;3.44;69.54;96313.72;4684883;30;20268;-83
2022/01/24 06:37:42;;;;;;;14.38;8.68;;;4.50;82.10;;;3.49;69.19;96324.56;4684584;30;20225;-84
2022/01/24 06:40:11;;;;;;;13.75;8.68;;;4.50;82.00;;;3.50;69.49;96328.81;4699522;30;20735;-83
2022/01/24 06:42:39;;;;;;;15.02;8.88;;;4.50;82.10;;;3.51;69.26;96340.84;4671358;30;20271;-84
2022/01/24 06:45:08;;;;;;;13.82;8.35;;;4.50;82.10;;;3.52;69.36;96345.94;4669335;30;20312;-85
2022/01/24 06:47:35;;;;;;;14.00;7.82;;;4.50;82.10;;;3.57;69.43;96349.97;4699355;30;20228;-84
2022/01/24 06:50:04;;;;;;;16.95;9.40;;;4.50;82.20;;;3.55;69.59;96346.66;4684796;30;20267;-84
2022/01/24 06:52:31;;;;;;;13.00;7.97;;;4.50;82.20;;;3.56;69.34;96340.53;4684952;30;20281;-84
2022/01/24 06:54:58;;;;;;;13.13;8.23;;;4.60;82.30;;;3.66;69.04;96355.31;4699923;30;20233;-84
2022/01/24 06:57:26;;;;;;;11.50;7.72;;;4.60;82.30;;;3.72;69.39;96364.38;4684562;30;20236;-82
2022/01/24 06:59:53;;;;;;;13.02;8.82;;;4.60;82.30;;;3.75;69.00;96360.75;4683663;30;20331;-81
2022/01/24 07:02:20;;;;;;;13.95;8.25;;;4.60;82.30;;;3.75;69.27;96359.00;4669774;30;20340;-81
2022/01/24 07:04:47;;;;;;;13.50;8.00;;;4.70;82.30;;;3.80;69.06;96367.25;4683695;30;20267;-81
2022/01/24 07:07:19;;;;;;;12.13;7.63;;;4.70;82.30;;;3.81;69.12;96374.09;4684848;30;20221;-84
2022/01/24 07:09:46;;;;;;;13.65;8.57;;;4.70;82.30;;;3.85;69.27;96380.72;4698196;30;20235;-83
2022/01/24 07:12:14;;;;;;;12.48;7.82;;;4.70;82.30;;;3.86;69.06;96378.97;4683805;30;20212;-84
2022/01/24 07:14:42;;;;;;;11.15;7.47;;;4.80;82.30;;;3.92;69.15;96390.63;4670288;30;20256;-83
2022/01/24 07:19:47;;;;;;;13.07;8.60;;;4.80;82.30;;;3.96;68.77;96392.91;4684565;30;20240;-85
2022/01/24 07:22:14;;;;;;;14.70;8.63;;;4.80;82.30;;;3.93;68.96;96390.53;4669506;30;20264;-83
2022/01/24 07:24:42;;;;;;;13.07;8.02;;;4.80;82.30;;;4.01;68.80;96395.16;4704224;30;20315;-83
2022/01/24 07:27:09;;;;;;;12.05;7.57;;;4.90;82.40;;;4.05;69.06;96382.78;4683004;30;20299;-82
2022/01/24 07:29:37;;;;;;;13.07;7.63;;;4.90;82.40;;;4.13;69.10;96390.81;4698579;30;20232;-83
2022/01/24 07:32:04;;;;;;;12.68;7.47;;;4.90;82.40;;;4.15;69.10;96383.72;4684406;30;20217;-84
2022/01/24 07:34:32;;;;;;;10.88;7.05;;;5.00;82.50;;;4.23;68.88;96398.75;4670037;30;20259;-82
2022/01/24 07:36:59;;;;;;;10.77;7.00;;;5.00;82.50;;;4.27;69.07;96394.97;4698602;30;20704;-82
2022/01/24 07:39:26;;;;;;;9.85;6.68;;;5.00;82.50;;;4.26;68.73;96386.38;4683576;30;20306;-83
2022/01/24 07:41:54;;;;;;;10.68;7.15;;;5.10;82.50;;;4.41;68.90;96404.34;4684133;30;20339;-82
2022/01/24 07:44:21;;;;;;;9.40;6.43;;;5.10;82.50;;;4.40;68.79;96390.50;4670204;30;20232;-83
2022/01/24 07:46:49;;;;;;;10.50;7.13;;;5.20;82.50;;;4.51;69.06;96404.47;4684009;30;20315;-83
2022/01/24 07:49:17;;;;;;;10.13;6.80;;;5.20;82.50;;;4.54;68.65;96404.22;4670357;30;20663;-83
2022/01/24 07:51:44;;;;;;;9.52;6.70;;;5.30;82.50;;;4.57;68.77;96404.00;4683735;30;20217;-81
2022/01/24 07:54:11;;;;;;;9.15;6.57;;;5.40;82.50;;;4.64;68.61;96413.78;4683842;30;20295;-83
2022/01/24 07:56:39;;;;;;;10.43;6.78;;;5.40;82.50;;;4.70;68.75;96406.47;4687096;30;20307;-83
2022/01/24 07:59:07;;;;;;;9.60;6.60;;;5.40;82.40;;;4.75;68.60;96412.97;4687231;30;20234;-84
2022/01/24 08:01:34;;;;;;;9.38;6.35;;;5.50;82.50;;;4.72;68.37;96396.78;4669285;30;20244;-82
2022/01/24 08:04:02;;;;;;;12.27;7.60;;;5.50;82.40;;;4.79;68.76;96414.38;4686702;30;20378;-82
2022/01/24 08:06:29;;;;;;;11.10;6.93;;;5.60;82.50;;;4.87;68.72;96415.56;4672715;30;20314;-82
2022/01/24 08:08:56;;;;;;;9.65;7.15;;;5.60;82.40;;;4.90;68.42;96415.31;4687003;30;20241;-82
2022/01/24 08:11:23;;;;;;;10.68;7.60;;;5.60;82.40;;;4.92;68.47;96413.41;4687305;30;20308;-82
2022/01/24 08:13:52;;;;;;;12.65;7.85;;;5.70;82.40;;;4.94;67.81;96414.97;4673206;30;20244;-83
2022/01/24 08:16:22;;;;;;;9.60;6.70;;;5.70;82.20;;;4.99;68.44;96416.38;4686130;30;20252;-83
2022/01/24 08:18:52;;;;;;;9.55;6.55;;;5.70;82.20;;;5.03;68.78;96415.19;4687232;30;20692;-83
2022/01/24 08:21:20;;;;;;;10.90;6.82;;;5.80;82.30;;;5.13;68.44;96416.94;4701223;30;20237;-83
2022/01/24 08:23:48;;;;;;;8.77;6.05;;;5.90;82.40;;;5.18;68.44;96420.97;4701099;30;20236;-83
2022/01/24 08:26:17;;;;;;;9.25;5.97;;;5.90;82.40;;;5.20;68.43;96419.06;4688333;30;20221;-83
2022/01/24 08:28:45;;;;;;;9.80;6.35;;;5.90;82.30;;;5.25;68.32;96422.16;4686369;30;20221;-82
2022/01/24 08:31:12;;;;;;;9.70;6.50;;;5.90;82.20;;;5.21;68.25;96423.31;4685927;30;20275;-82
2022/01/24 08:33:39;;;;;;;9.70;6.65;;;6.00;82.20;;;5.29;67.80;96423.56;4671912;30;20220;-83
2022/01/24 08:36:06;;;;;;;8.90;6.45;;;6.00;82.10;;;5.34;68.01;96426.59;4686474;30;20700;-83
2022/01/24 08:38:35;;;;;;;8.27;5.93;;;6.00;82.10;;;5.38;68.40;96416.78;4686410;30;20221;-83
2022/01/24 08:41:19;;;;;;;9.48;6.38;;;6.10;82.20;;;5.44;68.14;96421.50;4672191;30;20294;-83
2022/01/24 08:43:57;;;;;;;8.40;6.03;;;6.10;82.00;;;5.47;68.33;96417.81;4678836;30;20249;-82
2022/01/24 08:46:26;;;;;;;10.18;6.57;;;6.20;82.10;;;5.54;67.72;96411.19;4686370;30;20569;-82
2022/01/24 08:48:53;;;;;;;10.75;7.63;;;6.20;82.10;;;5.58;68.14;96403.00;4686274;30;20232;-81
2022/01/24 08:51:21;;;;;;;10.13;7.00;;;6.20;82.20;;;5.61;68.03;96412.34;4699900;30;20304;-83
2022/01/24 08:54:04;;;;;;;9.23;6.95;;;6.30;82.20;;;5.71;68.07;96417.63;4688552;30;20269;-82
2022/01/24 08:56:31;;;;;;;10.38;7.18;;;6.40;82.20;;;5.79;67.82;96424.84;4693227;30;20217;-83
2022/01/24 08:58:59;;;;;;;9.88;6.78;;;6.40;82.10;;;5.81;67.89;96421.16;4685883;30;20791;-82
2022/01/24 09:01:26;;;;;;;9.75;6.78;;;6.40;81.80;;;5.81;67.90;96421.16;4686324;30;20317;-83
2022/01/24 09:03:54;;;;;;;9.90;7.35;;;6.50;81.80;;;5.88;67.81;96429.28;4686176;30;20744;-82
2022/01/24 09:06:22;;;;;;;11.48;7.57;;;6.60;81.90;;;5.89;67.53;96436.16;4698412;30;20217;-82
2022/01/24 09:08:56;;;;;;;10.65;6.88;;;6.60;81.90;;;5.88;67.41;96437.94;4685814;30;20237;-82
2022/01/24 09:11:29;;;;;;;10.85;7.20;;;6.60;81.90;;;5.92;67.44;96444.53;4686300;30;20569;-83
2022/01/24 09:13:57;;;;;;;10.63;7.60;;;6.60;81.70;;;5.95;67.54;96447.84;4685965;30;20236;-82
2022/01/24 09:16:25;;;;;;;10.15;6.97;;;6.70;81.70;;;5.98;67.65;96444.97;4699929;30;20219;-83
2022/01/24 09:18:53;;;;;;;10.18;6.60;;;6.70;81.70;;;5.98;67.48;96443.22;4700125;30;20240;-83
2022/01/24 09:21:23;;;;;;;10.95;7.68;;;6.70;81.80;;;6.06;67.48;96442.63;4685711;30;20232;-83
2022/01/24 09:23:50;;;;;;;9.52;6.45;;;6.70;81.70;;;6.13;67.54;96446.38;4685853;30;20268;-83
2022/01/24 09:26:18;;;;;;;10.70;7.63;;;6.70;81.90;;;6.19;67.56;96450.22;4672762;30;20233;-83
2022/01/24 09:28:46;;;;;;;11.02;7.55;;;6.80;82.00;;;6.24;67.65;96448.91;4690472;30;20237;-84
2022/01/24 09:31:15;;;;;;;10.73;7.13;;;6.80;82.00;;;6.30;67.40;96442.38;4700107;30;20209;-83
2022/01/24 09:33:42;;;;;;;10.05;7.03;;;6.90;82.00;;;6.41;67.77;96444.91;4699496;30;20597;-82
2022/01/24 09:36:10;;;;;;;11.55;7.60;;;6.90;82.10;;;6.50;67.49;96442.50;4700174;30;20228;-83
2022/01/24 09:38:37;;;;;;;10.80;7.13;;;7.00;82.10;;;6.59;67.45;96443.50;4672150;30;20240;-82
2022/01/24 09:41:13;;;;;;;9.60;6.75;;;7.10;82.90;;;6.65;67.50;96441.22;4699952;30;20220;-82
2022/01/24 09:43:43;;;;;;;11.32;7.25;;;7.20;82.00;;;6.75;67.33;96437.81;4681709;30;20198;-82
2022/01/24 09:46:12;;;;;;;10.00;7.28;;;7.30;82.10;;;6.82;67.31;96439.78;4685983;30;20217;-83
2022/01/24 09:48:41;;;;;;;10.30;7.43;;;7.40;82.10;;;6.92;67.14;96437.22;4685505;30;20308;-83
2022/01/24 09:51:09;;;;;;;10.30;7.30;;;7.40;81.90;;;7.01;67.15;96439.03;4698789;30;20249;-82
2022/01/24 09:53:37;;;;;;;9.00;6.80;;;7.40;82.00;;;7.09;66.98;96424.50;4699788;30;20281;-82
2022/01/24 09:56:06;;;;;;;9.85;6.63;;;7.50;81.90;;;7.10;66.83;96426.16;4699818;30;20216;-83
2022/01/24 09:58:35;;;;;;;9.82;7.15;;;7.60;81.70;;;7.15;66.72;96427.44;4685749;30;20255;-82
2022/01/24 10:01:07;;;;;;;9.35;6.85;;;7.70;81.70;;;7.25;66.65;96437.88;4696486;30;20273;-83
2022/01/24 10:03:36;;;;;;;10.27;7.40;;;7.70;81.40;;;7.28;66.73;96436.78;4684838;30;20255;-83
2022/01/24 10:06:11;;;;;;;10.85;6.88;;;7.80;81.50;;;7.36;66.82;96432.56;4686106;30;20216;-82
2022/01/24 10:08:38;;;;;;;9.23;6.72;;;7.80;81.60;;;7.42;67.01;96422.53;4685253;30;20221;-83
2022/01/24 10:11:07;;;;;;;8.98;6.82;;;7.90;81.60;;;7.52;66.31;96432.03;4684731;30;20216;-82
2022/01/24 10:19:16;;;;;;;8.77;6.55;;;8.20;81.20;;;7.84;66.45;96414.47;4698752;30;20311;-83
2022/01/24 10:22:04;;;;;;;9.07;6.18;;;8.20;80.90;;;7.93;66.55;96415.44;4672811;30;20240;-83
2022/01/24 10:24:44;;;;;;;8.55;5.95;;;8.30;81.30;;;8.01;66.31;96408.53;4684799;30;20240;-82
2022/01/24 10:27:28;;;;;;;7.53;6.07;;;8.40;81.00;;;8.10;66.39;96414.72;4670758;30;20217;-83
2022/01/24 10:30:08;;;;;;;7.68;5.70;;;8.50;81.20;;;8.19;66.33;96405.25;4684711;30;20247;-82
2022/01/24 10:32:47;;;;;;;6.88;5.47;;;8.60;80.80;;;8.28;66.02;96411.41;4670463;30;20217;-82
2022/01/24 10:35:20;;;;;;;7.30;5.25;;;8.70;80.70;;;8.30;65.84;96410.31;4685974;30;20236;-82
2022/01/24 10:37:50;;;;;;;7.18;5.85;;;8.70;81.00;;;8.30;65.71;96407.69;4683923;30;20309;-82
2022/01/24 10:43:28;;;;;;;6.93;5.47;;;8.80;79.80;;;8.24;65.23;96410.03;4685704;30;20232;-83
2022/01/24 10:45:58;;;;;;;7.18;5.60;;;8.80;80.20;;;8.20;65.50;96411.28;4684816;30;20224;-83
2022/01/24 10:48:30;;;;;;;6.55;5.30;;;8.80;79.90;;;8.17;65.09;96410.59;4698067;30;20250;-82
2022/01/24 10:51:14;;;;;;;7.72;5.82;;;8.80;79.80;;;8.10;64.83;96406.88;4684051;30;20319;-82
2022/01/24 10:53:56;;;;;;;6.93;5.30;;;8.90;79.20;;;8.01;65.64;96402.50;4684605;30;20654;-83
2022/01/24 10:56:29;;;;;;;6.03;5.13;;;8.80;79.50;;;7.91;65.17;96393.84;4683078;30;20213;-83
2022/01/24 10:59:15;;;;;;;6.65;5.28;;;8.80;79.60;;;7.94;65.38;96399.59;4684411;30;20240;-83
2022/01/24 11:01:46;;;;;;;5.88;4.70;;;8.70;79.20;;;7.95;65.44;96395.22;4684184;30;20790;-83
2022/01/24 11:04:17;;;;;;;6.95;4.90;;;8.60;79.70;;;7.93;65.24;96397.94;4697482;30;20311;-83
2022/01/24 11:06:51;;;;;;;7.47;5.38;;;8.60;79.60;;;7.94;65.32;96401.41;4685112;30;20213;-83
2022/01/24 11:09:37;;;;;;;6.57;4.93;;;8.60;79.50;;;7.94;65.52;96394.38;4698690;30;20247;-82
2022/01/24 11:12:12;;;;;;;5.15;4.60;;;8.60;79.50;;;7.95;65.36;96400.44;4683203;30;20708;-82
2022/01/24 11:14:44;;;;;;;5.10;4.50;;;8.60;79.30;;;7.97;65.27;96396.72;4669158;30;20747;-82
2022/01/24 11:17:18;;;;;;;6.55;5.15;;;8.60;79.80;;;7.98;65.44;96400.16;4698743;30;20220;-83
2022/01/24 11:19:54;;;;;;;6.20;4.88;;;8.60;79.70;;;8.00;65.31;96404.28;4684067;30;20259;-83
2022/01/24 11:22:26;;;;;;;6.07;4.93;;;8.60;79.60;;;8.03;65.14;96405.78;4685126;30;20243;-82
2022/01/24 11:25:00;;;;;;;6.70;5.05;;;8.70;79.90;;;8.02;65.27;96407.59;4682918;30;20247;-83
2022/01/24 11:27:40;;;;;;;7.93;5.55;;;8.70;79.70;;;8.04;65.26;96407.44;4685129;30;20700;-83
2022/01/24 11:30:11;;;;;;;7.00;5.40;;;8.70;79.70;;;8.00;64.99;96396.44;4683305;30;20256;-82
2022/01/24 11:32:58;;;;;;;7.97;6.20;;;8.70;79.40;;;7.96;64.99;96397.69;4683295;30;20311;-82
2022/01/24 11:35:52;;;;;;;7.93;6.15;;;8.70;79.30;;;7.92;64.63;96400.72;4669262;30;20286;-84
2022/01/24 11:38:31;;;;;;;7.43;6.00;;;8.70;78.90;;;7.85;64.87;96397.84;4684204;30;20235;-82
2022/01/24 11:41:06;;;;;;;8.50;6.38;;;8.60;78.80;;;7.80;64.95;96398.25;4663982;30;20223;-83
2022/01/24 11:43:44;;;;;;;8.48;6.70;;;8.60;79.20;;;7.74;65.02;96385.75;4683876;30;20279;-83
2022/01/24 11:46:42;;;;;;;9.43;6.32;;;8.60;79.20;;;7.73;64.75;96386.69;4666113;30;20248;-83
2022/01/24 11:49:44;;;;;;;7.43;5.90;;;8.60;78.60;;;7.69;64.92;96391.38;4683739;30;20237;-84
2022/01/24 11:52:14;;;;;;;6.47;5.28;;;8.50;78.70;;;7.68;64.84;96383.69;4683647;30;20216;-83
2022/01/24 11:54:55;;;;;;;6.05;5.00;;;8.50;78.90;;;7.66;64.86;96382.97;4683243;30;20279;-83
2022/01/24 11:57:47;;;;;;;6.22;5.10;;;8.50;78.80;;;7.65;64.98;96378.72;4669701;30;20588;-83
2022/01/24 12:00:21;;;;;;;6.93;5.05;;;8.50;78.50;;;7.67;64.96;96376.81;4683800;30;20272;-82
2022/01/24 12:02:53;;;;;;;20.83;15.50;;;8.40;79.20;;;7.68;64.96;96368.00;4696633;30;20236;-83
2022/01/24 12:05:29;;;;;;;16.02;14.35;;;8.50;79.10;;;7.71;65.03;96370.31;4683375;30;20327;-82
2022/01/24 12:08:04;;;;;;;11.88;10.13;;;8.40;78.80;;;7.72;65.12;96369.38;4684241;30;20220;-83
2022/01/24 12:10:51;;;;;;;10.93;9.75;;;8.50;78.80;;;7.74;65.00;96366.63;4698124;30;20228;-83
2022/01/24 12:13:31;;;;;;;9.68;7.80;;;8.50;79.20;;;7.71;64.77;96365.09;4683553;30;20217;-83
2022/01/24 12:16:10;;;;;;;9.35;6.70;;;8.40;78.70;;;7.73;64.94;96370.22;4684513;30;20220;-83
2022/01/24 12:18:38;;;;;;;8.23;6.72;;;8.50;78.60;;;7.74;64.89;96369.22;4684118;30;20215;-83
2022/01/24 12:21:10;;;;;;;7.10;5.75;;;8.40;79.20;;;7.75;64.88;96369.09;4697596;30;20243;-83
2022/01/24 12:24:10;;;;;;;10.98;7.00;;;8.40;78.90;;;7.77;65.07;96375.00;4682562;30;20240;-83